createdAt,value
2023-02-11T00:00:53.435Z,49.33
2023-02-11T00:03:36.922Z,49.59
2023-02-11T00:06:10.593Z,49.31
2023-02-11T00:08:45.005Z,49.63
2023-02-11T00:11:29.849Z,51.74
2023-02-11T00:14:22.518Z,49.24
2023-02-11T00:16:58.335Z,48.90
2023-02-11T00:19:27.479Z,49.25
2023-02-11T00:21:54.413Z,49.18
2023-02-11T00:24:30.118Z,48.83
2023-02-11T00:27:04.707Z,49.28
2023-02-11T00:29:41.972Z,49.15
2023-02-11T00:32:12.163Z,49.02
2023-02-11T00:34:48.523Z,48.52
2023-02-11T00:37:26.139Z,47.66
2023-02-11T00:40:19.681Z,48.42
2023-02-11T00:43:01.366Z,49.46
2023-02-11T00:45:38.236Z,49.59
2023-02-11T00:48:05.397Z,49.69
2023-02-11T00:50:38.475Z,49.32
2023-02-11T00:53:22.444Z,48.92
2023-02-11T00:56:04.097Z,49.21
2023-02-11T00:58:31.400Z,49.52
2023-02-11T01:01:01.326Z,50.68
2023-02-11T01:03:34.771Z,49.57
2023-02-11T01:06:06.176Z,48.78
2023-02-11T01:08:58.231Z,49.55
2023-02-11T01:11:26.406Z,49.32
2023-02-11T01:13:54.233Z,49.32
2023-02-11T01:16:21.890Z,49.41
2023-02-11T01:18:55.215Z,49.27
2023-02-11T01:21:34.785Z,49.72
2023-02-11T01:24:11.808Z,50.21
2023-02-11T01:26:39.578Z,50.29
2023-02-11T01:29:16.720Z,50.16
2023-02-11T01:31:49.049Z,50.54
2023-02-11T01:34:19.455Z,49.61
2023-02-11T01:36:46.387Z,51.18
2023-02-11T01:39:16.222Z,50.37
2023-02-11T01:41:42.987Z,50.64
2023-02-11T01:44:37.422Z,49.61
2023-02-11T01:47:07.520Z,49.99
2023-02-11T01:50:02.374Z,50.61
2023-02-11T01:52:33.638Z,50.61
2023-02-11T01:55:31.938Z,51.68
2023-02-11T01:58:13.615Z,50.87
2023-02-11T02:00:41.899Z,51.22
2023-02-11T02:03:20.718Z,50.87
2023-02-11T02:05:48.154Z,50.93
2023-02-11T02:08:34.770Z,50.48
2023-02-11T02:11:11.353Z,51.45
2023-02-11T02:13:43.575Z,50.75
2023-02-11T02:16:19.754Z,51.16
2023-02-11T02:19:32.043Z,51.25
2023-02-11T02:22:34.521Z,51.26
2023-02-11T02:25:27.439Z,51.02
2023-02-11T02:28:21.668Z,51.19
2023-02-11T02:31:14.710Z,50.74
2023-02-11T02:34:23.856Z,50.16
2023-02-11T02:37:16.794Z,49.71
2023-02-11T02:39:46.030Z,50.11
2023-02-11T02:42:22.687Z,50.07
2023-02-11T02:44:53.635Z,50.37
2023-02-11T02:47:20.438Z,49.48
2023-02-11T02:49:57.403Z,49.06
2023-02-11T02:53:07.914Z,48.27
2023-02-11T02:55:57.166Z,48.56
2023-02-11T02:58:49.995Z,48.86
2023-02-11T03:01:57.699Z,49.28
2023-02-11T03:05:13.537Z,49.74
2023-02-11T03:07:55.773Z,49.40
2023-02-11T03:10:40.481Z,49.60
2023-02-11T03:13:31.021Z,50.07
2023-02-11T03:16:31.874Z,50.42
2023-02-11T03:19:30.100Z,50.33
2023-02-11T03:22:10.156Z,50.01
2023-02-11T03:24:56.503Z,50.29
2023-02-11T03:27:46.708Z,50.22
2023-02-11T03:30:21.478Z,50.83
2023-02-11T03:33:24.175Z,50.90
2023-02-11T03:36:17.113Z,50.50
2023-02-11T03:39:01.155Z,50.49
2023-02-11T03:41:38.895Z,50.74
2023-02-11T03:44:07.483Z,50.70
2023-02-11T03:46:39.663Z,50.93
2023-02-11T03:49:20.634Z,49.50
2023-02-11T03:51:51.438Z,50.48
2023-02-11T03:54:22.569Z,50.45
2023-02-11T03:56:55.321Z,50.43
2023-02-11T03:59:52.117Z,50.67
2023-02-11T04:02:24.505Z,49.81
2023-02-11T04:04:51.272Z,52.05
2023-02-11T04:07:27.311Z,49.85
2023-02-11T04:09:54.413Z,51.17
2023-02-11T04:12:21.633Z,50.73
2023-02-11T04:14:48.817Z,51.06
2023-02-11T04:17:23.040Z,51.88
2023-02-11T04:20:04.400Z,51.69
2023-02-11T04:22:31.464Z,51.33
2023-02-11T04:24:58.368Z,51.59
2023-02-11T04:27:25.915Z,52.36
2023-02-11T04:30:05.062Z,51.49
2023-02-11T04:32:42.844Z,51.41
2023-02-11T04:35:11.083Z,51.36
2023-02-11T04:37:37.709Z,50.36
2023-02-11T04:40:05.072Z,50.34
2023-02-11T04:42:32.528Z,50.05
2023-02-11T04:45:03.098Z,50.70
2023-02-11T04:47:44.059Z,49.65
2023-02-11T04:50:11.557Z,49.69
2023-02-11T04:52:41.486Z,49.83
2023-02-11T04:55:11.777Z,49.86
2023-02-11T04:57:49.987Z,49.41
2023-02-11T05:00:26.335Z,49.43
2023-02-11T05:03:01.478Z,48.60
2023-02-11T05:05:31.219Z,48.55
2023-02-11T05:07:58.096Z,49.48
2023-02-11T05:10:24.922Z,48.17
2023-02-11T05:12:56.075Z,48.50
2023-02-11T05:15:27.002Z,47.84
2023-02-11T05:17:54.284Z,48.09
2023-02-11T05:20:26.380Z,47.69
2023-02-11T05:22:56.599Z,47.11
2023-02-11T05:25:26.783Z,48.05
2023-02-11T05:27:53.667Z,47.99
2023-02-11T05:30:29.266Z,48.62
2023-02-11T05:32:56.147Z,48.76
2023-02-11T05:35:25.464Z,48.49
2023-02-11T05:38:03.800Z,48.17
2023-02-11T05:40:52.095Z,48.83
2023-02-11T05:43:39.944Z,48.41
2023-02-11T05:46:18.673Z,49.18
2023-02-11T05:48:48.444Z,49.13
2023-02-11T05:51:15.220Z,49.43
2023-02-11T05:53:42.048Z,49.32
2023-02-11T05:56:25.346Z,49.58
2023-02-11T05:58:57.039Z,49.53
2023-02-11T06:01:23.761Z,49.70
2023-02-11T06:03:51.594Z,48.95
2023-02-11T06:06:29.941Z,49.69
2023-02-11T06:08:57.817Z,49.56
2023-02-11T06:11:24.811Z,49.67
2023-02-11T06:13:59.099Z,49.46
2023-02-11T06:16:38.740Z,49.83
2023-02-11T06:19:05.469Z,49.95
2023-02-11T06:21:43.313Z,49.74
2023-02-11T06:24:38.503Z,50.21
2023-02-11T06:27:06.114Z,50.17
2023-02-11T06:29:33.475Z,50.79
2023-02-11T06:32:04.973Z,49.89
2023-02-11T06:34:31.850Z,50.30
2023-02-11T06:36:58.740Z,50.41
2023-02-11T06:39:29.955Z,50.64
2023-02-11T06:42:06.424Z,51.46
2023-02-11T06:44:34.715Z,51.35
2023-02-11T06:47:07.088Z,50.62
2023-02-11T06:49:34.044Z,50.18
2023-02-11T06:52:07.304Z,50.48
2023-02-11T06:54:34.786Z,51.34
2023-02-11T06:57:02.109Z,50.80
2023-02-11T06:59:36.199Z,51.54
2023-02-11T07:02:06.162Z,50.79
2023-02-11T07:04:38.411Z,51.56
2023-02-11T07:07:16.328Z,50.03
2023-02-11T07:09:43.464Z,50.42
2023-02-11T07:12:16.606Z,50.58
2023-02-11T07:14:49.389Z,49.93
2023-02-11T07:17:35.214Z,49.26
2023-02-11T07:20:12.745Z,48.71
2023-02-11T07:22:45.290Z,45.16
2023-02-11T07:25:22.410Z,44.32
2023-02-11T07:27:50.435Z,43.15
2023-02-11T07:30:18.587Z,43.01
2023-02-11T07:32:49.219Z,42.82
2023-02-11T07:35:17.180Z,43.17
2023-02-11T07:37:44.197Z,43.10
2023-02-11T07:40:12.879Z,42.66
2023-02-11T07:42:48.222Z,44.79
2023-02-11T07:45:17.929Z,41.54
2023-02-11T07:47:48.950Z,42.79
2023-02-11T07:50:18.616Z,41.16
2023-02-11T07:52:45.445Z,41.23
2023-02-11T07:55:12.388Z,41.88
2023-02-11T07:57:42.034Z,41.29
2023-02-11T08:00:11.680Z,41.38
2023-02-11T08:02:40.778Z,41.70
2023-02-11T08:05:07.768Z,41.14
2023-02-11T08:07:37.638Z,40.98
2023-02-11T08:10:09.089Z,41.94
2023-02-11T08:12:36.046Z,40.98
2023-02-11T08:15:02.923Z,38.88
2023-02-11T08:20:48.636Z,38.42
2023-02-11T08:23:29.278Z,38.31
2023-02-11T08:26:04.237Z,41.30
2023-02-11T08:28:31.516Z,37.89
2023-02-11T08:31:03.796Z,38.26
2023-02-11T08:33:31.317Z,37.56
2023-02-11T08:36:07.377Z,37.23
2023-02-11T08:38:38.678Z,37.37
2023-02-11T08:41:18.183Z,36.71
2023-02-11T08:43:49.646Z,37.17
2023-02-11T08:46:23.003Z,38.16
2023-02-11T08:48:56.864Z,38.47
2023-02-11T08:51:29.518Z,37.04
2023-02-11T08:56:43.203Z,36.99
2023-02-11T08:59:13.910Z,40.01
2023-02-11T09:01:58.617Z,37.90
2023-02-11T09:04:41.119Z,38.73
2023-02-11T09:07:12.241Z,36.53
2023-02-11T09:12:29.478Z,37.78
2023-02-11T09:15:08.314Z,37.41
2023-02-11T09:17:35.224Z,35.51
2023-02-11T09:20:05.125Z,35.31
2023-02-11T09:22:33.177Z,37.13
2023-02-11T09:25:03.325Z,35.75
2023-02-11T09:27:30.139Z,36.43
2023-02-11T09:30:06.655Z,37.83
2023-02-11T09:32:52.404Z,38.81
2023-02-11T09:35:19.458Z,34.69
2023-02-11T09:37:53.400Z,35.46
2023-02-11T09:40:23.030Z,36.90
2023-02-11T09:43:14.582Z,37.42
2023-02-11T09:45:52.988Z,36.07
2023-02-11T09:48:31.600Z,35.08
2023-02-11T09:51:06.960Z,35.45
2023-02-11T09:53:47.861Z,35.73
2023-02-11T09:56:24.864Z,35.03
2023-02-11T09:58:52.098Z,35.16
2023-02-11T10:01:49.298Z,36.18
2023-02-11T10:04:26.892Z,35.23
2023-02-11T10:07:03.638Z,34.75
2023-02-11T10:10:08.130Z,34.83
2023-02-11T10:12:53.556Z,33.97
2023-02-11T10:15:53.204Z,34.34
2023-02-11T10:18:57.927Z,34.84
2023-02-11T10:22:02.789Z,34.44
2023-02-11T10:24:35.331Z,35.47
2023-02-11T10:27:33.284Z,32.70
2023-02-11T10:30:19.359Z,32.69
2023-02-11T10:32:51.608Z,33.36
2023-02-11T10:38:16.502Z,31.23
2023-02-11T10:40:46.211Z,31.01
2023-02-11T10:43:29.004Z,30.39
2023-02-11T10:46:04.773Z,31.00
2023-02-11T10:48:54.325Z,32.38
2023-02-11T10:51:51.849Z,30.12
2023-02-11T10:54:37.609Z,32.05
2023-02-11T10:57:07.706Z,29.34
2023-02-11T10:59:40.514Z,30.94
2023-02-11T11:02:35.317Z,29.52
2023-02-11T11:05:21.406Z,30.61
2023-02-11T11:08:13.492Z,30.78
2023-02-11T11:11:04.042Z,29.47
2023-02-11T11:13:37.093Z,31.89
2023-02-11T11:16:30.737Z,34.68
2023-02-11T11:19:08.522Z,30.62
2023-02-11T11:21:42.923Z,29.73
2023-02-11T11:24:31.476Z,30.97
2023-02-11T11:27:04.205Z,32.82
2023-02-11T11:29:55.552Z,33.68
2023-02-11T11:32:33.875Z,31.80
2023-02-11T11:38:33.353Z,31.42
2023-02-11T11:41:23.447Z,32.13
2023-02-11T11:44:30.716Z,31.00
2023-02-11T11:47:27.445Z,31.90
2023-02-11T11:50:02.257Z,32.06
2023-02-11T11:52:54.454Z,30.94
2023-02-11T11:55:33.051Z,30.62
2023-02-11T11:58:02.731Z,33.30
2023-02-11T12:00:43.090Z,31.38
2023-02-11T12:03:31.194Z,35.72
2023-02-11T12:06:25.328Z,35.52
2023-02-11T12:08:58.567Z,32.43
2023-02-11T12:11:47.638Z,32.21
2023-02-11T12:14:39.493Z,29.86
2023-02-11T12:17:50.948Z,31.39
2023-02-11T12:20:33.275Z,29.00
2023-02-11T12:23:18.944Z,31.25
2023-02-11T12:25:58.470Z,30.93
2023-02-11T12:29:10.477Z,30.34
2023-02-11T12:32:24.875Z,31.12
2023-02-11T12:35:19.093Z,33.08
2023-02-11T12:38:08.544Z,31.71
2023-02-11T12:41:02.206Z,29.69
2023-02-11T12:43:46.191Z,34.07
2023-02-11T12:46:39.109Z,31.34
2023-02-11T12:49:47.419Z,34.88
2023-02-11T12:52:47.925Z,35.02
2023-02-11T12:55:57.292Z,30.45
2023-02-11T12:58:45.723Z,30.06
2023-02-11T13:01:46.532Z,30.22
2023-02-11T13:04:56.219Z,32.46
2023-02-11T13:07:56.776Z,31.17
2023-02-11T13:10:37.820Z,31.53
2023-02-11T13:13:19.462Z,34.90
2023-02-11T13:15:58.287Z,30.45
2023-02-11T13:18:56.028Z,29.20
2023-02-11T13:21:54.683Z,29.36
2023-02-11T13:24:51.986Z,33.97
2023-02-11T13:27:38.751Z,35.83
2023-02-11T13:30:45.507Z,30.25
2023-02-11T13:33:35.786Z,31.24
2023-02-11T13:36:23.724Z,35.00
2023-02-11T13:39:12.665Z,35.43
2023-02-11T13:41:52.919Z,35.67
2023-02-11T13:44:28.513Z,30.98
2023-02-11T13:47:17.997Z,29.56
2023-02-11T13:50:00.718Z,30.51
2023-02-11T13:52:31.909Z,30.45
2023-02-11T13:55:25.518Z,30.66
2023-02-11T13:58:36.125Z,33.88
2023-02-11T14:01:41.626Z,31.32
2023-02-11T14:04:45.495Z,30.70
2023-02-11T14:07:48.928Z,30.92
2023-02-11T14:10:45.802Z,30.72
2023-02-11T14:13:34.874Z,29.69
2023-02-11T14:16:36.336Z,32.72
2023-02-11T14:19:06.941Z,30.74
2023-02-11T14:21:41.854Z,32.39
2023-02-11T14:24:13.268Z,35.01
2023-02-11T14:27:23.640Z,36.16
2023-02-11T14:30:24.610Z,36.97
2023-02-11T14:33:44.143Z,34.86
2023-02-11T14:36:40.864Z,34.79
2023-02-11T14:39:31.620Z,31.90
2023-02-11T14:42:07.588Z,31.46
2023-02-11T14:44:37.732Z,34.19
2023-02-11T14:47:19.179Z,31.48
2023-02-11T14:49:47.729Z,31.61
2023-02-11T14:52:41.808Z,33.00
2023-02-11T14:55:34.472Z,31.02
2023-02-11T14:58:27.428Z,35.40
2023-02-11T15:01:06.536Z,33.19
2023-02-11T15:03:41.661Z,31.13
2023-02-11T15:06:31.394Z,32.38
2023-02-11T15:09:13.492Z,32.49
2023-02-11T15:11:43.299Z,31.35
2023-02-11T15:14:19.190Z,33.26
2023-02-11T15:16:47.828Z,33.12
2023-02-11T15:19:28.631Z,35.97
2023-02-11T15:21:59.750Z,34.09
2023-02-11T15:24:29.817Z,31.97
2023-02-11T15:27:21.073Z,31.07
2023-02-11T15:29:56.364Z,32.25
2023-02-11T15:32:36.887Z,33.21
2023-02-11T15:35:10.114Z,34.66
2023-02-11T15:37:37.137Z,36.63
2023-02-11T15:40:23.003Z,37.96
2023-02-11T15:42:58.342Z,37.57
2023-02-11T15:45:35.431Z,34.16
2023-02-11T15:48:12.934Z,35.04
2023-02-11T15:50:42.294Z,37.66
2023-02-11T15:53:27.399Z,32.51
2023-02-11T15:56:22.248Z,34.21
2023-02-11T15:59:19.321Z,32.91
2023-02-11T16:01:48.595Z,37.49
2023-02-11T16:04:22.079Z,34.61
2023-02-11T16:06:51.155Z,35.52
2023-02-11T16:09:41.431Z,36.86
2023-02-11T16:15:47.030Z,36.14
2023-02-11T16:18:28.461Z,38.06
2023-02-11T16:21:02.670Z,37.08
2023-02-11T16:23:34.847Z,37.14
2023-02-11T16:26:12.652Z,37.85
2023-02-11T16:28:46.691Z,37.38
2023-02-11T16:31:13.869Z,38.20
2023-02-11T16:33:43.193Z,37.65
2023-02-11T16:36:18.195Z,38.07
2023-02-11T16:38:45.093Z,39.31
2023-02-11T16:41:20.579Z,39.02
2023-02-11T16:43:53.162Z,39.21
2023-02-11T16:46:20.279Z,39.39
2023-02-11T16:48:47.153Z,39.95
2023-02-11T16:51:18.817Z,40.32
2023-02-11T16:53:45.989Z,40.59
2023-02-11T16:56:19.476Z,40.71
2023-02-11T16:59:03.382Z,40.48
2023-02-11T17:01:36.489Z,41.50
2023-02-11T17:04:04.711Z,41.42
2023-02-11T17:06:32.005Z,41.85
2023-02-11T17:09:00.482Z,41.95
2023-02-11T17:11:29.775Z,42.17
2023-02-11T17:14:05.326Z,41.31
2023-02-11T17:16:36.330Z,42.05
2023-02-11T17:19:07.132Z,41.32
2023-02-11T17:21:34.173Z,42.58
2023-02-11T17:24:01.547Z,42.38
2023-02-11T17:29:12.155Z,42.58
2023-02-11T17:31:47.051Z,43.24
2023-02-11T17:34:22.971Z,43.20
2023-02-11T17:37:00.356Z,43.09
2023-02-11T17:39:27.904Z,43.56
2023-02-11T17:41:54.794Z,43.91
2023-02-11T17:44:22.016Z,44.42
2023-02-11T17:47:03.150Z,44.25
2023-02-11T17:49:34.030Z,45.06
2023-02-11T17:52:01.402Z,44.52
2023-02-11T17:54:33.384Z,44.64
2023-02-11T17:57:00.345Z,44.60
2023-02-11T17:59:31.887Z,45.00
2023-02-11T18:02:05.534Z,45.78
2023-02-11T18:04:34.247Z,45.53
2023-02-11T18:07:20.318Z,46.25
2023-02-11T18:09:49.860Z,44.92
2023-02-11T18:12:31.395Z,45.64
2023-02-11T18:14:58.417Z,45.60
2023-02-11T18:17:25.653Z,45.91
2023-02-11T18:20:00.744Z,45.75
2023-02-11T18:22:38.736Z,46.00
2023-02-11T18:25:13.350Z,46.62
2023-02-11T18:27:51.822Z,46.77
2023-02-11T18:30:48.459Z,46.39
2023-02-11T18:33:28.213Z,46.28
2023-02-11T18:35:57.743Z,46.65
2023-02-11T18:38:44.565Z,46.97
2023-02-11T18:41:36.639Z,47.25
2023-02-11T18:44:28.748Z,47.37
2023-02-11T18:47:07.813Z,46.42
2023-02-11T18:49:43.536Z,46.62
2023-02-11T18:52:21.489Z,47.38
2023-02-11T18:54:52.483Z,47.38
2023-02-11T18:57:31.272Z,47.53
2023-02-11T19:00:08.061Z,46.78
2023-02-11T19:02:49.151Z,47.14
2023-02-11T19:05:16.734Z,46.91
2023-02-11T19:07:47.156Z,47.39
2023-02-11T19:10:14.303Z,47.19
2023-02-11T19:12:42.188Z,47.56
2023-02-11T19:15:09.288Z,46.77
2023-02-11T19:17:41.484Z,47.29
2023-02-11T19:20:09.219Z,47.07
2023-02-11T19:22:41.829Z,46.78
2023-02-11T19:25:08.636Z,46.61
2023-02-11T19:27:53.343Z,46.74
2023-02-11T19:30:20.831Z,47.33
2023-02-11T19:32:53.345Z,47.02
2023-02-11T19:35:22.626Z,45.84
2023-02-11T19:37:54.839Z,45.37
2023-02-11T19:40:21.695Z,47.95
2023-02-11T19:42:51.416Z,46.31
2023-02-11T19:45:20.580Z,46.91
2023-02-11T19:47:47.440Z,47.65
2023-02-11T19:50:14.423Z,47.76
2023-02-11T19:52:41.291Z,49.25
2023-02-11T19:55:08.732Z,49.71
2023-02-11T19:57:59.693Z,48.72
2023-02-11T20:00:26.651Z,47.15
2023-02-11T20:02:53.581Z,48.09
2023-02-11T20:05:20.424Z,47.59
2023-02-11T20:07:59.661Z,47.26
2023-02-11T20:10:33.614Z,45.12
2023-02-11T20:13:06.625Z,44.50
2023-02-11T20:15:34.612Z,45.79
2023-02-11T20:18:02.078Z,46.34
2023-02-11T20:20:28.881Z,47.47
2023-02-11T20:22:55.765Z,47.10
2023-02-11T20:25:22.725Z,47.75
2023-02-11T20:27:51.254Z,47.57
2023-02-11T20:30:28.555Z,48.42
2023-02-11T20:33:01.762Z,48.60
2023-02-11T20:35:28.723Z,48.86
2023-02-11T20:37:56.288Z,48.38
2023-02-11T20:40:28.260Z,49.04
2023-02-11T20:42:57.003Z,48.75
2023-02-11T20:45:25.001Z,49.52
2023-02-11T20:48:01.901Z,48.15
2023-02-11T20:50:30.018Z,48.28
2023-02-11T20:53:10.493Z,48.30
2023-02-11T20:55:40.574Z,48.87
2023-02-11T20:58:08.369Z,49.13
2023-02-11T21:00:38.436Z,49.91
2023-02-11T21:03:10.927Z,50.33
2023-02-11T21:05:39.364Z,48.98
2023-02-11T21:08:08.081Z,49.37
2023-02-11T21:10:38.863Z,48.86
2023-02-11T21:13:05.953Z,47.76
2023-02-11T21:15:32.902Z,48.30
2023-02-11T21:18:02.964Z,47.83
2023-02-11T21:20:40.388Z,49.05
2023-02-11T21:23:12.268Z,48.05
2023-02-11T21:25:40.475Z,47.94
2023-02-11T21:28:13.867Z,48.06
2023-02-11T21:30:44.938Z,48.77
2023-02-11T21:33:13.230Z,49.84
2023-02-11T21:35:43.227Z,48.89
2023-02-11T21:38:18.708Z,48.19
2023-02-11T21:40:46.373Z,48.14
2023-02-11T21:43:34.736Z,47.40
2023-02-11T21:46:41.290Z,48.54
2023-02-11T21:49:12.701Z,48.88
2023-02-11T21:51:48.780Z,49.65
2023-02-11T21:54:19.184Z,48.00
2023-02-11T21:56:55.173Z,47.25
2023-02-11T21:59:45.738Z,47.93
2023-02-11T22:02:24.341Z,48.70
2023-02-11T22:04:57.829Z,49.52
2023-02-11T22:07:31.029Z,49.64
2023-02-11T22:10:01.046Z,50.22
2023-02-11T22:12:37.886Z,49.65
2023-02-11T22:15:05.902Z,49.33
2023-02-11T22:17:34.687Z,49.49
2023-02-11T22:20:12.448Z,50.20
2023-02-11T22:22:49.976Z,46.51
2023-02-11T22:25:29.198Z,47.59
2023-02-11T22:27:57.078Z,48.09
2023-02-11T22:30:52.689Z,48.64
2023-02-11T22:33:26.011Z,49.29
2023-02-11T22:36:09.001Z,49.65
2023-02-11T22:38:40.136Z,49.19
2023-02-11T22:41:11.364Z,49.71
2023-02-11T22:43:38.988Z,51.08
2023-02-11T22:46:15.674Z,50.78
2023-02-11T22:49:17.690Z,50.43
2023-02-11T22:51:49.792Z,50.44
2023-02-11T22:54:40.081Z,50.66
2023-02-11T22:57:06.921Z,50.90
2023-02-11T22:59:39.803Z,51.53
2023-02-11T23:02:10.077Z,51.97
2023-02-11T23:04:37.261Z,51.67
2023-02-11T23:07:09.329Z,52.04
2023-02-11T23:09:45.189Z,50.63
2023-02-11T23:12:15.182Z,51.09
2023-02-11T23:14:45.046Z,51.38
2023-02-11T23:17:12.033Z,50.84
2023-02-11T23:19:48.591Z,51.14
2023-02-11T23:22:23.837Z,50.41
2023-02-11T23:24:50.868Z,50.68
2023-02-11T23:27:29.506Z,51.12
2023-02-11T23:32:53.322Z,51.11
2023-02-11T23:35:44.958Z,50.29
2023-02-11T23:38:19.536Z,50.33
2023-02-11T23:40:46.616Z,50.95
2023-02-11T23:43:17.944Z,51.29
2023-02-11T23:48:31.145Z,51.55
2023-02-11T23:51:03.498Z,51.33
2023-02-11T23:53:45.385Z,51.81
2023-02-11T23:56:27.671Z,53.73
2023-02-11T23:58:57.465Z,51.33
